createdAt,value
2023-02-16T00:01:14.888Z,35.80
2023-02-16T00:03:40.784Z,45.00
2023-02-16T00:06:06.966Z,36.40
2023-02-16T00:08:33.053Z,43.07
2023-02-16T00:11:17.453Z,42.47
2023-02-16T00:13:52.130Z,37.20
2023-02-16T00:16:23.583Z,49.67
2023-02-16T00:18:50.465Z,41.33
2023-02-16T00:21:17.965Z,25.87
2023-02-16T00:23:44.411Z,47.60
2023-02-16T00:26:24.276Z,45.07
2023-02-16T00:28:51.862Z,40.93
2023-02-16T00:31:26.025Z,42.43
2023-02-16T00:33:52.570Z,44.50
2023-02-16T00:36:18.596Z,47.73
2023-02-16T00:38:44.541Z,39.70
2023-02-16T00:41:35.798Z,42.03
2023-02-16T00:44:01.619Z,45.00
2023-02-16T00:46:27.657Z,43.70
2023-02-16T00:48:53.501Z,41.37
2023-02-16T00:51:25.887Z,39.10
2023-02-16T00:53:52.188Z,47.33
2023-02-16T00:56:19.844Z,50.43
2023-02-16T00:58:45.992Z,51.03
2023-02-16T01:01:15.468Z,51.77
2023-02-16T01:03:41.656Z,54.83
2023-02-16T01:06:25.992Z,51.80
2023-02-16T01:09:13.386Z,50.37
2023-02-16T01:11:39.188Z,56.00
2023-02-16T01:14:05.408Z,53.17
2023-02-16T01:16:37.447Z,46.20
2023-02-16T01:19:04.081Z,55.50
2023-02-16T01:21:29.957Z,48.43
2023-02-16T01:23:55.783Z,44.30
2023-02-16T01:26:21.811Z,47.10
2023-02-16T01:28:47.824Z,49.73
2023-02-16T01:31:14.268Z,51.40
2023-02-16T01:33:41.254Z,46.30
2023-02-16T01:36:19.451Z,44.47
2023-02-16T01:38:45.284Z,48.20
2023-02-16T01:41:21.705Z,49.23
2023-02-16T01:43:50.517Z,54.90
2023-02-16T01:46:20.658Z,51.67
2023-02-16T01:48:46.579Z,49.63
2023-02-16T01:51:18.528Z,49.80
2023-02-16T01:53:53.637Z,48.87
2023-02-16T01:56:30.688Z,44.20
2023-02-16T01:59:03.360Z,59.33
2023-02-16T02:01:49.500Z,62.97
2023-02-16T02:04:58.930Z,54.60
2023-02-16T02:07:32.817Z,45.23
2023-02-16T02:10:04.664Z,49.80
2023-02-16T02:12:45.690Z,50.53
2023-02-16T02:15:12.952Z,56.23
2023-02-16T02:17:38.867Z,49.10
2023-02-16T02:20:16.333Z,41.03
2023-02-16T02:23:22.345Z,53.77
2023-02-16T02:26:06.961Z,52.40
2023-02-16T02:28:57.926Z,55.83
2023-02-16T02:31:36.295Z,36.37
2023-02-16T02:34:25.280Z,48.33
2023-02-16T02:37:04.686Z,43.90
2023-02-16T02:39:52.326Z,55.03
2023-02-16T02:42:25.208Z,54.87
2023-02-16T02:44:57.511Z,41.57
2023-02-16T02:47:23.344Z,41.50
2023-02-16T02:49:54.219Z,47.17
2023-02-16T02:52:20.841Z,56.63
2023-02-16T02:55:05.924Z,50.17
2023-02-16T02:58:04.475Z,48.83
2023-02-16T03:00:43.504Z,44.27
2023-02-16T03:03:29.668Z,44.60
2023-02-16T03:06:09.413Z,50.13
2023-02-16T03:08:37.121Z,45.60
2023-02-16T03:11:31.791Z,59.30
2023-02-16T03:14:01.006Z,52.33
2023-02-16T03:16:40.208Z,44.87
2023-02-16T03:19:26.664Z,46.10
2023-02-16T03:22:11.630Z,55.57
2023-02-16T03:24:56.053Z,49.50
2023-02-16T03:27:43.957Z,46.90
2023-02-16T03:30:11.131Z,44.53
2023-02-16T03:32:38.142Z,39.90
2023-02-16T03:35:04.849Z,41.30
2023-02-16T03:37:31.370Z,47.50
2023-02-16T03:40:15.720Z,42.97
2023-02-16T03:42:49.092Z,47.77
2023-02-16T03:45:15.086Z,48.87
2023-02-16T03:47:40.930Z,46.10
2023-02-16T03:50:07.371Z,48.83
2023-02-16T03:52:33.210Z,45.80
2023-02-16T03:54:59.822Z,49.20
2023-02-16T03:57:25.787Z,45.30
2023-02-16T03:59:53.528Z,45.27
2023-02-16T04:02:19.657Z,45.63
2023-02-16T04:04:46.056Z,49.20
2023-02-16T04:07:11.995Z,48.97
2023-02-16T04:09:37.851Z,49.93
2023-02-16T04:12:22.879Z,45.37
2023-02-16T04:14:48.695Z,42.03
2023-02-16T04:17:14.553Z,47.90
2023-02-16T04:19:40.624Z,47.77
2023-02-16T04:22:06.436Z,44.60
2023-02-16T04:24:32.271Z,36.70
2023-02-16T04:26:58.139Z,58.70
2023-02-16T04:29:24.035Z,50.53
2023-02-16T04:31:50.051Z,55.10
2023-02-16T04:34:15.992Z,58.43
2023-02-16T04:36:41.795Z,50.47
2023-02-16T04:39:07.630Z,54.43
2023-02-16T04:41:33.457Z,41.40
2023-02-16T04:43:59.316Z,52.30
2023-02-16T04:46:25.359Z,41.83
2023-02-16T04:48:51.291Z,49.40
2023-02-16T04:51:17.237Z,52.13
2023-02-16T04:53:43.689Z,37.67
2023-02-16T04:56:10.369Z,40.97
2023-02-16T04:58:36.516Z,50.77
2023-02-16T05:01:02.619Z,51.70
2023-02-16T05:03:28.769Z,46.30
2023-02-16T05:05:54.804Z,42.67
2023-02-16T05:08:21.024Z,45.53
2023-02-16T05:11:06.855Z,53.07
2023-02-16T05:13:51.179Z,46.17
2023-02-16T05:16:19.946Z,49.10
2023-02-16T05:18:45.758Z,66.57
2023-02-16T05:21:30.080Z,48.73
2023-02-16T05:24:00.991Z,55.00
2023-02-16T05:26:28.110Z,57.57
2023-02-16T05:28:54.315Z,46.13
2023-02-16T05:31:21.408Z,61.83
2023-02-16T05:33:47.338Z,44.90
2023-02-16T05:36:13.272Z,48.83
2023-02-16T05:38:39.185Z,45.20
2023-02-16T05:41:05.373Z,41.07
2023-02-16T05:43:31.485Z,48.20
2023-02-16T05:45:57.376Z,47.50
2023-02-16T05:48:23.474Z,53.00
2023-02-16T05:50:49.386Z,47.60
2023-02-16T05:53:15.204Z,52.50
2023-02-16T05:55:41.044Z,46.67
2023-02-16T05:58:06.964Z,50.23
2023-02-16T06:00:32.999Z,44.73
2023-02-16T06:02:59.878Z,56.07
2023-02-16T06:05:25.937Z,47.33
2023-02-16T06:07:52.326Z,48.63
2023-02-16T06:10:18.274Z,62.67
2023-02-16T06:12:45.004Z,45.10
2023-02-16T06:15:11.352Z,65.23
2023-02-16T06:17:37.170Z,42.60
2023-02-16T06:20:04.144Z,43.60
2023-02-16T06:22:30.014Z,38.93
2023-02-16T06:24:55.812Z,45.87
2023-02-16T06:27:21.746Z,43.97
2023-02-16T06:29:47.544Z,44.33
2023-02-16T06:32:13.467Z,45.83
2023-02-16T06:34:39.397Z,48.00
2023-02-16T06:37:05.275Z,42.00
2023-02-16T06:39:31.084Z,39.37
2023-02-16T06:41:56.921Z,36.17
2023-02-16T06:44:22.729Z,45.00
2023-02-16T06:46:48.658Z,55.63
2023-02-16T06:49:19.646Z,38.87
2023-02-16T06:51:46.466Z,47.07
2023-02-16T06:54:12.749Z,41.57
2023-02-16T06:56:39.012Z,44.90
2023-02-16T06:59:05.462Z,42.07
2023-02-16T07:01:31.391Z,42.43
2023-02-16T07:03:57.587Z,40.70
2023-02-16T07:06:25.662Z,43.50
2023-02-16T07:08:52.185Z,29.83
2023-02-16T07:11:18.542Z,41.33
2023-02-16T07:13:44.597Z,48.17
2023-02-16T07:16:11.507Z,50.50
2023-02-16T07:18:37.811Z,34.27
2023-02-16T07:21:04.860Z,50.53
2023-02-16T07:23:30.880Z,32.00
2023-02-16T07:25:56.742Z,38.30
2023-02-16T07:28:22.627Z,39.23
2023-02-16T07:30:48.469Z,43.77
2023-02-16T07:33:15.136Z,30.37
2023-02-16T07:35:41.874Z,38.70
2023-02-16T07:38:07.700Z,37.23
2023-02-16T07:40:33.613Z,50.87
2023-02-16T07:43:00.658Z,37.90
2023-02-16T07:45:27.179Z,36.40
2023-02-16T07:47:53.004Z,32.57
2023-02-16T07:50:18.852Z,40.67
2023-02-16T07:52:44.744Z,38.00
2023-02-16T07:55:11.115Z,36.87
2023-02-16T07:57:38.290Z,38.70
2023-02-16T08:00:07.865Z,41.80
2023-02-16T08:02:34.046Z,36.07
2023-02-16T08:05:00.322Z,38.90
2023-02-16T08:07:26.737Z,31.50
2023-02-16T08:09:52.782Z,38.43
2023-02-16T08:12:18.968Z,33.70
2023-02-16T08:14:47.880Z,40.73
2023-02-16T08:17:14.263Z,35.90
2023-02-16T08:19:40.296Z,38.30
2023-02-16T08:22:06.959Z,38.05
2023-02-16T08:24:33.502Z,33.97
2023-02-16T08:27:00.222Z,40.77
2023-02-16T08:29:26.074Z,29.13
2023-02-16T08:31:52.674Z,36.43
2023-02-16T08:34:19.730Z,33.63
2023-02-16T08:36:46.840Z,27.63
2023-02-16T08:39:18.278Z,33.00
2023-02-16T08:41:46.275Z,34.40
2023-02-16T08:44:14.751Z,40.20
2023-02-16T08:46:42.261Z,29.47
2023-02-16T08:49:09.201Z,36.40
2023-02-16T08:51:37.795Z,34.17
2023-02-16T08:54:06.052Z,35.33
2023-02-16T08:56:34.671Z,30.60
2023-02-16T08:59:00.990Z,33.63
2023-02-16T09:01:27.470Z,41.03
2023-02-16T09:03:53.361Z,33.47
2023-02-16T09:06:20.770Z,34.83
2023-02-16T09:08:54.584Z,25.97
2023-02-16T09:11:21.126Z,29.77
2023-02-16T09:13:47.066Z,34.70
2023-02-16T09:16:18.937Z,38.60
2023-02-16T09:18:45.402Z,36.10
2023-02-16T09:21:14.940Z,39.77
2023-02-16T09:23:44.383Z,29.70
2023-02-16T09:26:11.186Z,37.10
2023-02-16T09:28:37.618Z,34.73
2023-02-16T09:31:25.035Z,35.57
2023-02-16T09:33:55.854Z,37.00
2023-02-16T09:36:21.713Z,36.50
2023-02-16T09:38:48.337Z,36.07
2023-02-16T09:41:22.688Z,31.40
2023-02-16T09:44:00.123Z,29.60
2023-02-16T09:46:28.078Z,29.10
2023-02-16T09:48:54.420Z,37.37
2023-02-16T09:51:33.789Z,34.13
2023-02-16T09:54:09.095Z,35.50
2023-02-16T09:56:38.351Z,38.30
2023-02-16T09:59:17.846Z,32.87
2023-02-16T10:02:26.401Z,30.33
2023-02-16T10:05:13.480Z,34.90
2023-02-16T10:07:48.218Z,37.50
2023-02-16T10:10:16.327Z,28.37
2023-02-16T10:12:48.083Z,34.53
2023-02-16T10:15:16.276Z,35.30
2023-02-16T10:18:01.988Z,32.80
2023-02-16T10:20:38.760Z,35.70
2023-02-16T10:23:31.375Z,33.07
2023-02-16T10:26:23.983Z,31.17
2023-02-16T10:28:57.195Z,40.70
2023-02-16T10:31:42.669Z,38.17
2023-02-16T10:34:39.862Z,36.60
2023-02-16T10:37:21.520Z,32.00
2023-02-16T10:40:02.697Z,34.43
2023-02-16T10:42:43.142Z,37.03
2023-02-16T10:45:41.324Z,34.30
2023-02-16T10:48:09.296Z,34.53
2023-02-16T10:51:06.250Z,32.13
2023-02-16T10:53:51.650Z,36.63
2023-02-16T10:56:26.084Z,36.83
2023-02-16T10:58:52.475Z,37.37
2023-02-16T11:01:20.365Z,36.10
2023-02-16T11:03:49.278Z,36.10
2023-02-16T11:06:24.286Z,41.50
2023-02-16T11:08:55.714Z,35.83
2023-02-16T11:11:24.383Z,39.90
2023-02-16T11:13:58.436Z,37.53
2023-02-16T11:16:24.467Z,29.87
2023-02-16T11:19:02.879Z,43.57
2023-02-16T11:21:42.194Z,36.50
2023-02-16T11:24:11.294Z,32.63
2023-02-16T11:26:37.439Z,39.30
2023-02-16T11:29:18.109Z,39.70
2023-02-16T11:31:44.266Z,32.17
2023-02-16T11:34:10.279Z,31.53
2023-02-16T11:36:41.746Z,32.10
2023-02-16T11:39:13.462Z,31.13
2023-02-16T11:41:45.436Z,34.17
2023-02-16T11:44:30.035Z,32.03
2023-02-16T11:46:56.868Z,33.77
2023-02-16T11:49:39.101Z,32.33
2023-02-16T11:52:23.294Z,31.50
2023-02-16T11:54:50.387Z,32.10
2023-02-16T11:57:32.913Z,30.90
2023-02-16T12:00:00.101Z,33.53
2023-02-16T12:02:26.075Z,31.20
2023-02-16T12:05:07.372Z,36.00
2023-02-16T12:07:51.191Z,34.90
2023-02-16T12:10:31.152Z,31.40
2023-02-16T12:13:04.148Z,31.93
2023-02-16T12:15:42.089Z,31.90
2023-02-16T12:18:31.022Z,28.97
2023-02-16T12:21:12.994Z,29.40
2023-02-16T12:24:01.039Z,32.70
2023-02-16T12:26:44.246Z,29.83
2023-02-16T12:29:47.831Z,32.57
2023-02-16T12:32:16.402Z,40.80
2023-02-16T12:34:58.855Z,35.17
2023-02-16T12:37:39.576Z,32.07
2023-02-16T12:40:36.156Z,20.07
2023-02-16T12:43:30.581Z,24.87
2023-02-16T12:46:01.952Z,28.53
2023-02-16T12:48:48.619Z,33.63
2023-02-16T12:51:24.953Z,30.50
2023-02-16T12:54:01.120Z,32.80
2023-02-16T12:56:47.380Z,28.47
2023-02-16T12:59:15.995Z,28.33
2023-02-16T13:01:42.340Z,24.93
2023-02-16T13:04:30.386Z,30.40
2023-02-16T13:07:15.554Z,27.90
2023-02-16T13:09:52.090Z,30.77
2023-02-16T13:12:35.146Z,30.80
2023-02-16T13:15:20.435Z,27.23
2023-02-16T13:17:50.392Z,29.63
2023-02-16T13:20:20.018Z,27.63
2023-02-16T13:23:30.526Z,28.90
2023-02-16T13:26:10.091Z,30.30
2023-02-16T13:28:57.809Z,31.63
2023-02-16T13:31:49.001Z,28.43
2023-02-16T13:34:49.170Z,31.10
2023-02-16T13:37:59.044Z,29.47
2023-02-16T13:40:41.770Z,31.00
2023-02-16T13:43:30.220Z,29.43
2023-02-16T13:45:56.374Z,30.07
2023-02-16T13:48:54.560Z,30.23
2023-02-16T13:51:30.253Z,32.17
2023-02-16T13:53:58.548Z,32.67
2023-02-16T13:56:24.314Z,35.07
2023-02-16T13:58:52.244Z,36.13
2023-02-16T14:01:31.095Z,32.33
2023-02-16T14:03:58.024Z,33.67
2023-02-16T14:06:33.306Z,36.63
2023-02-16T14:09:14.740Z,30.23
2023-02-16T14:11:52.471Z,34.13
2023-02-16T14:14:34.163Z,34.47
2023-02-16T14:17:18.399Z,33.07
2023-02-16T14:19:57.844Z,29.80
2023-02-16T14:22:29.170Z,33.07
2023-02-16T14:25:01.264Z,31.83
2023-02-16T14:27:51.212Z,25.33
2023-02-16T14:30:49.259Z,36.85
2023-02-16T14:34:16.924Z,33.73
2023-02-16T14:37:15.566Z,30.57
2023-02-16T14:40:17.929Z,27.47
2023-02-16T14:43:22.965Z,35.40
2023-02-16T14:46:16.242Z,38.20
2023-02-16T14:49:02.387Z,34.60
2023-02-16T14:52:14.813Z,34.10
2023-02-16T14:55:01.732Z,32.40
2023-02-16T14:58:13.590Z,32.37
2023-02-16T15:01:06.811Z,33.73
2023-02-16T15:03:47.050Z,32.93
2023-02-16T15:06:25.564Z,39.03
2023-02-16T15:08:58.363Z,36.93
2023-02-16T15:11:29.824Z,39.00
2023-02-16T15:14:03.885Z,35.40
2023-02-16T15:16:31.813Z,39.80
2023-02-16T15:18:58.265Z,41.53
2023-02-16T15:21:27.702Z,38.27
2023-02-16T15:23:56.060Z,36.40
2023-02-16T15:26:25.313Z,38.73
2023-02-16T15:28:57.424Z,33.57
2023-02-16T15:31:35.161Z,38.40
2023-02-16T15:34:06.758Z,40.60
2023-02-16T15:36:35.303Z,38.40
2023-02-16T15:39:28.255Z,33.40
2023-02-16T15:42:21.324Z,29.30
2023-02-16T15:44:47.549Z,36.63
2023-02-16T15:47:17.105Z,37.97
2023-02-16T15:49:44.302Z,39.00
2023-02-16T15:52:15.419Z,34.23
2023-02-16T15:54:42.488Z,32.73
2023-02-16T15:57:15.930Z,42.07
2023-02-16T15:59:48.464Z,38.37
2023-02-16T16:02:17.854Z,38.73
2023-02-16T16:04:47.643Z,33.50
2023-02-16T16:07:17.656Z,36.00
2023-02-16T16:09:45.077Z,37.57
2023-02-16T16:12:14.689Z,38.60
2023-02-16T16:14:53.306Z,37.77
2023-02-16T16:17:27.355Z,33.43
2023-02-16T16:19:54.246Z,34.60
2023-02-16T16:22:26.475Z,30.17
2023-02-16T16:24:52.758Z,34.30
2023-02-16T16:27:31.822Z,37.30
2023-02-16T16:30:19.513Z,40.50
2023-02-16T16:32:46.405Z,36.03
2023-02-16T16:35:20.757Z,31.87
2023-02-16T16:37:51.070Z,36.63
2023-02-16T16:40:23.052Z,36.67
2023-02-16T16:43:01.480Z,36.73
2023-02-16T16:45:41.194Z,38.67
2023-02-16T16:48:09.236Z,39.17
2023-02-16T16:50:39.703Z,39.53
2023-02-16T16:53:29.046Z,36.53
2023-02-16T16:55:56.055Z,42.20
2023-02-16T16:58:22.686Z,36.67
2023-02-16T17:00:48.806Z,38.13
2023-02-16T17:03:17.050Z,43.60
2023-02-16T17:05:44.569Z,38.97
2023-02-16T17:08:10.720Z,36.47
2023-02-16T17:10:40.834Z,34.50
2023-02-16T17:13:07.482Z,38.07
2023-02-16T17:15:44.929Z,38.67
2023-02-16T17:18:16.458Z,44.90
2023-02-16T17:20:43.363Z,38.37
2023-02-16T17:23:14.529Z,43.87
2023-02-16T17:25:41.606Z,42.30
2023-02-16T17:28:08.549Z,46.23
2023-02-16T17:30:35.103Z,56.97
2023-02-16T17:33:02.480Z,49.37
2023-02-16T17:35:30.133Z,69.47
2023-02-16T17:37:56.576Z,48.80
2023-02-16T17:40:24.296Z,58.07
2023-02-16T17:42:50.848Z,43.07
2023-02-16T17:45:19.509Z,44.03
2023-02-16T17:47:46.404Z,45.57
2023-02-16T17:50:14.396Z,46.47
2023-02-16T17:52:41.508Z,48.43
2023-02-16T17:55:08.757Z,44.27
2023-02-16T17:57:35.420Z,46.23
2023-02-16T18:00:03.838Z,42.03
2023-02-16T18:02:29.947Z,43.73
2023-02-16T18:04:56.095Z,41.60
2023-02-16T18:07:22.262Z,45.43
2023-02-16T18:09:48.526Z,51.43
2023-02-16T18:12:14.854Z,41.73
2023-02-16T18:14:40.947Z,42.40
2023-02-16T18:17:07.095Z,40.50
2023-02-16T18:19:33.663Z,45.30
2023-02-16T18:22:00.587Z,48.77
2023-02-16T18:24:26.726Z,49.37
2023-02-16T18:26:54.721Z,49.20
2023-02-16T18:29:20.823Z,44.30
2023-02-16T18:31:47.130Z,46.30
2023-02-16T18:34:13.472Z,47.50
2023-02-16T18:36:39.656Z,44.07
2023-02-16T18:39:07.085Z,36.77
2023-02-16T18:41:33.733Z,45.00
2023-02-16T18:43:59.983Z,42.87
2023-02-16T18:46:26.178Z,38.97
2023-02-16T18:48:52.390Z,41.40
2023-02-16T18:51:22.739Z,48.33
2023-02-16T18:53:48.939Z,50.53
2023-02-16T18:56:15.599Z,41.03
2023-02-16T18:58:42.733Z,46.40
2023-02-16T19:01:29.307Z,44.73
2023-02-16T19:03:55.949Z,46.43
2023-02-16T19:06:22.613Z,49.77
2023-02-16T19:08:50.493Z,42.90
2023-02-16T19:11:18.175Z,46.87
2023-02-16T19:13:44.667Z,45.90
2023-02-16T19:16:11.028Z,50.40
2023-02-16T19:18:37.247Z,44.97
2023-02-16T19:21:08.449Z,44.37
2023-02-16T19:23:34.804Z,45.13
2023-02-16T19:26:19.039Z,47.00
2023-02-16T19:28:46.003Z,42.60
2023-02-16T19:31:27.805Z,39.17
2023-02-16T19:33:54.949Z,47.40
2023-02-16T19:36:21.726Z,43.17
2023-02-16T19:38:48.304Z,45.60
2023-02-16T19:41:20.564Z,47.70
2023-02-16T19:43:46.836Z,49.70
2023-02-16T19:46:13.151Z,42.23
2023-02-16T19:48:39.938Z,47.50
2023-02-16T19:51:07.631Z,44.40
2023-02-16T19:53:35.568Z,45.17
2023-02-16T19:56:06.490Z,42.57
2023-02-16T19:58:32.906Z,49.00
2023-02-16T20:01:05.562Z,43.17
2023-02-16T20:03:31.737Z,41.80
2023-02-16T20:05:57.904Z,46.00
2023-02-16T20:08:24.081Z,43.03
2023-02-16T20:10:50.279Z,47.23
2023-02-16T20:13:16.385Z,44.37
2023-02-16T20:15:42.534Z,42.70
2023-02-16T20:18:08.677Z,41.50
2023-02-16T20:20:35.280Z,47.80
2023-02-16T20:23:01.366Z,45.30
2023-02-16T20:25:28.114Z,52.47
2023-02-16T20:27:55.905Z,59.10
2023-02-16T20:30:24.428Z,56.27
2023-02-16T20:32:50.578Z,56.40
2023-02-16T20:35:16.680Z,56.97
2023-02-16T20:37:43.068Z,45.73
2023-02-16T20:40:09.837Z,51.97
2023-02-16T20:42:35.916Z,44.67
2023-02-16T20:45:02.681Z,49.77
2023-02-16T20:47:28.770Z,48.30
2023-02-16T20:49:54.971Z,40.73
2023-02-16T20:52:21.098Z,42.20
2023-02-16T20:54:47.214Z,45.10
2023-02-16T20:57:26.137Z,42.20
2023-02-16T20:59:54.243Z,45.23
2023-02-16T21:02:20.430Z,36.57
2023-02-16T21:04:46.609Z,41.20
2023-02-16T21:07:12.865Z,43.70
2023-02-16T21:09:39.072Z,43.17
2023-02-16T21:12:05.375Z,42.67
2023-02-16T21:14:31.561Z,38.80
2023-02-16T21:16:57.790Z,44.30
2023-02-16T21:19:23.898Z,45.43
2023-02-16T21:21:51.192Z,39.30
2023-02-16T21:24:17.337Z,46.60
2023-02-16T21:26:43.448Z,39.43
2023-02-16T21:29:09.596Z,36.03
2023-02-16T21:31:35.772Z,38.23
2023-02-16T21:34:01.951Z,47.50
2023-02-16T21:36:28.177Z,38.17
2023-02-16T21:38:54.431Z,47.47
2023-02-16T21:41:26.123Z,44.17
2023-02-16T21:44:12.740Z,38.97
2023-02-16T21:46:41.290Z,41.90
2023-02-16T21:49:11.789Z,38.10
2023-02-16T21:51:40.703Z,39.67
2023-02-16T21:54:08.189Z,34.80
2023-02-16T21:56:38.592Z,40.53
2023-02-16T21:59:07.290Z,40.70
2023-02-16T22:01:37.694Z,35.90
2023-02-16T22:04:04.642Z,35.97
2023-02-16T22:06:38.718Z,37.37
2023-02-16T22:09:09.832Z,32.43
2023-02-16T22:11:36.349Z,36.20
2023-02-16T22:14:02.917Z,34.93
2023-02-16T22:16:30.955Z,35.33
2023-02-16T22:18:58.896Z,40.13
2023-02-16T22:21:26.036Z,37.60
2023-02-16T22:23:52.288Z,34.73
2023-02-16T22:26:26.929Z,40.27
2023-02-16T22:28:53.672Z,34.67
2023-02-16T22:31:22.295Z,35.97
2023-02-16T22:34:00.768Z,35.93
2023-02-16T22:36:27.383Z,36.40
2023-02-16T22:38:53.952Z,41.83
2023-02-16T22:41:21.079Z,38.03
2023-02-16T22:43:47.705Z,42.40
2023-02-16T22:46:15.889Z,35.73
2023-02-16T22:48:42.840Z,33.50
2023-02-16T22:51:12.059Z,35.33
2023-02-16T22:53:38.202Z,35.90
2023-02-16T22:56:06.814Z,48.37
2023-02-16T22:58:33.529Z,44.57
2023-02-16T23:01:00.201Z,41.20
2023-02-16T23:03:27.782Z,33.90
2023-02-16T23:05:54.249Z,42.20
2023-02-16T23:08:21.484Z,41.90
2023-02-16T23:11:00.509Z,36.90
2023-02-16T23:13:28.747Z,35.53
2023-02-16T23:15:56.203Z,37.50
2023-02-16T23:18:23.668Z,39.10
2023-02-16T23:20:49.836Z,41.10
2023-02-16T23:23:16.052Z,47.70
2023-02-16T23:25:48.782Z,54.83
2023-02-16T23:28:15.313Z,53.40
2023-02-16T23:30:45.663Z,45.67
2023-02-16T23:33:13.032Z,36.57
2023-02-16T23:35:40.659Z,39.83
2023-02-16T23:38:11.291Z,39.27
2023-02-16T23:40:37.391Z,39.77
2023-02-16T23:43:03.697Z,34.47
2023-02-16T23:45:29.875Z,35.43
2023-02-16T23:47:56.025Z,36.20
2023-02-16T23:50:22.233Z,31.30
2023-02-16T23:52:48.453Z,36.90
2023-02-16T23:55:14.627Z,37.23
2023-02-16T23:57:40.777Z,30.70
